sensor_id;sensor_type;location;lat;lon;timestamp;P1;durP1;ratioP1;P2;durP2;ratioP2
41875;SDS011;27555;50.808;4.402;2023-04-21T00:00:55;10.18;;;6.65;;
41875;SDS011;27555;50.808;4.402;2023-04-21T00:03:21;11.32;;;7.20;;
41875;SDS011;27555;50.808;4.402;2023-04-21T00:05:51;11.95;;;6.90;;
41875;SDS011;27555;50.808;4.402;2023-04-21T00:08:17;14.32;;;6.97;;
41875;SDS011;27555;50.808;4.402;2023-04-21T00:10:43;13.10;;;7.35;;
41875;SDS011;27555;50.808;4.402;2023-04-21T00:13:10;12.85;;;6.85;;
41875;SDS011;27555;50.808;4.402;2023-04-21T00:15:36;11.80;;;7.32;;
41875;SDS011;27555;50.808;4.402;2023-04-21T00:18:02;10.27;;;7.53;;
41875;SDS011;27555;50.808;4.402;2023-04-21T00:20:28;10.95;;;7.25;;
41875;SDS011;27555;50.808;4.402;2023-04-21T00:22:55;11.82;;;8.05;;
41875;SDS011;27555;50.808;4.402;2023-04-21T00:25:21;10.43;;;7.25;;
41875;SDS011;27555;50.808;4.402;2023-04-21T00:27:47;16.20;;;8.50;;
41875;SDS011;27555;50.808;4.402;2023-04-21T00:30:13;18.50;;;7.40;;
41875;SDS011;27555;50.808;4.402;2023-04-21T00:32:39;11.82;;;7.32;;
41875;SDS011;27555;50.808;4.402;2023-04-21T00:35:04;11.27;;;7.53;;
41875;SDS011;27555;50.808;4.402;2023-04-21T00:37:30;14.25;;;7.40;;
41875;SDS011;27555;50.808;4.402;2023-04-21T00:39:56;11.38;;;6.97;;
41875;SDS011;27555;50.808;4.402;2023-04-21T00:42:23;10.18;;;7.30;;
41875;SDS011;27555;50.808;4.402;2023-04-21T00:44:49;13.48;;;8.02;;
41875;SDS011;27555;50.808;4.402;2023-04-21T00:47:16;10.95;;;7.28;;
41875;SDS011;27555;50.808;4.402;2023-04-21T00:49:42;11.18;;;7.53;;
41875;SDS011;27555;50.808;4.402;2023-04-21T00:52:07;12.45;;;7.88;;
41875;SDS011;27555;50.808;4.402;2023-04-21T00:54:34;11.38;;;7.05;;
41875;SDS011;27555;50.808;4.402;2023-04-21T00:57:00;11.32;;;7.90;;
41875;SDS011;27555;50.808;4.402;2023-04-21T00:59:27;12.88;;;9.10;;
41875;SDS011;27555;50.808;4.402;2023-04-21T01:01:53;14.60;;;8.73;;
41875;SDS011;27555;50.808;4.402;2023-04-21T01:04:19;13.07;;;9.02;;
41875;SDS011;27555;50.808;4.402;2023-04-21T01:06:45;11.73;;;8.18;;
41875;SDS011;27555;50.808;4.402;2023-04-21T01:09:11;12.48;;;8.32;;
41875;SDS011;27555;50.808;4.402;2023-04-21T01:11:37;12.00;;;8.93;;
41875;SDS011;27555;50.808;4.402;2023-04-21T01:14:03;12.15;;;8.20;;
41875;SDS011;27555;50.808;4.402;2023-04-21T01:16:29;15.05;;;8.80;;
41875;SDS011;27555;50.808;4.402;2023-04-21T01:18:57;13.32;;;8.52;;
41875;SDS011;27555;50.808;4.402;2023-04-21T01:21:24;12.20;;;9.05;;
41875;SDS011;27555;50.808;4.402;2023-04-21T01:23:55;14.00;;;9.57;;
41875;SDS011;27555;50.808;4.402;2023-04-21T01:26:21;14.85;;;9.88;;
41875;SDS011;27555;50.808;4.402;2023-04-21T01:28:48;12.43;;;9.02;;
41875;SDS011;27555;50.808;4.402;2023-04-21T01:31:14;13.93;;;10.50;;
41875;SDS011;27555;50.808;4.402;2023-04-21T01:33:40;15.55;;;10.18;;
41875;SDS011;27555;50.808;4.402;2023-04-21T01:36:06;13.68;;;9.73;;
41875;SDS011;27555;50.808;4.402;2023-04-21T01:38:33;13.82;;;10.40;;
41875;SDS011;27555;50.808;4.402;2023-04-21T01:41:02;14.70;;;10.10;;
41875;SDS011;27555;50.808;4.402;2023-04-21T01:43:28;14.32;;;10.18;;
41875;SDS011;27555;50.808;4.402;2023-04-21T01:45:54;17.27;;;11.68;;
41875;SDS011;27555;50.808;4.402;2023-04-21T01:48:19;16.00;;;10.98;;
41875;SDS011;27555;50.808;4.402;2023-04-21T01:50:45;18.13;;;12.40;;
41875;SDS011;27555;50.808;4.402;2023-04-21T01:53:10;16.33;;;11.80;;
41875;SDS011;27555;50.808;4.402;2023-04-21T01:55:36;15.52;;;11.48;;
41875;SDS011;27555;50.808;4.402;2023-04-21T01:58:02;18.17;;;12.77;;
41875;SDS011;27555;50.808;4.402;2023-04-21T02:00:28;19.65;;;13.05;;
41875;SDS011;27555;50.808;4.402;2023-04-21T02:02:53;18.88;;;13.50;;
41875;SDS011;27555;50.808;4.402;2023-04-21T02:05:19;17.42;;;12.60;;
41875;SDS011;27555;50.808;4.402;2023-04-21T02:07:45;19.60;;;14.35;;
41875;SDS011;27555;50.808;4.402;2023-04-21T02:10:10;19.45;;;14.80;;
41875;SDS011;27555;50.808;4.402;2023-04-21T02:12:36;20.73;;;14.80;;
41875;SDS011;27555;50.808;4.402;2023-04-21T02:15:02;25.30;;;16.15;;
41875;SDS011;27555;50.808;4.402;2023-04-21T02:17:28;22.55;;;15.30;;
41875;SDS011;27555;50.808;4.402;2023-04-21T02:19:54;22.05;;;15.63;;
41875;SDS011;27555;50.808;4.402;2023-04-21T02:22:20;21.25;;;15.68;;
41875;SDS011;27555;50.808;4.402;2023-04-21T02:24:47;22.55;;;15.43;;
41875;SDS011;27555;50.808;4.402;2023-04-21T02:27:13;21.80;;;16.02;;
41875;SDS011;27555;50.808;4.402;2023-04-21T02:29:38;23.40;;;16.65;;
41875;SDS011;27555;50.808;4.402;2023-04-21T02:32:04;27.92;;;18.50;;
41875;SDS011;27555;50.808;4.402;2023-04-21T02:34:30;24.40;;;17.52;;
41875;SDS011;27555;50.808;4.402;2023-04-21T02:36:55;24.10;;;18.02;;
41875;SDS011;27555;50.808;4.402;2023-04-21T02:39:21;26.75;;;18.88;;
41875;SDS011;27555;50.808;4.402;2023-04-21T02:41:47;25.70;;;18.42;;
41875;SDS011;27555;50.808;4.402;2023-04-21T02:44:13;27.27;;;20.45;;
41875;SDS011;27555;50.808;4.402;2023-04-21T02:46:39;29.05;;;20.70;;
41875;SDS011;27555;50.808;4.402;2023-04-21T02:49:05;27.50;;;19.92;;
41875;SDS011;27555;50.808;4.402;2023-04-21T02:51:31;30.27;;;21.40;;
41875;SDS011;27555;50.808;4.402;2023-04-21T02:53:57;31.55;;;21.15;;
41875;SDS011;27555;50.808;4.402;2023-04-21T02:56:22;27.02;;;19.80;;
41875;SDS011;27555;50.808;4.402;2023-04-21T02:58:48;27.77;;;20.33;;
41875;SDS011;27555;50.808;4.402;2023-04-21T03:01:14;30.40;;;22.02;;
41875;SDS011;27555;50.808;4.402;2023-04-21T03:03:40;32.60;;;22.75;;
41875;SDS011;27555;50.808;4.402;2023-04-21T03:06:06;31.45;;;22.27;;
41875;SDS011;27555;50.808;4.402;2023-04-21T03:08:31;30.50;;;22.70;;
41875;SDS011;27555;50.808;4.402;2023-04-21T03:10:57;30.25;;;21.65;;
41875;SDS011;27555;50.808;4.402;2023-04-21T03:13:23;32.90;;;21.00;;
41875;SDS011;27555;50.808;4.402;2023-04-21T03:15:49;29.88;;;21.83;;
41875;SDS011;27555;50.808;4.402;2023-04-21T03:18:15;32.10;;;22.30;;
41875;SDS011;27555;50.808;4.402;2023-04-21T03:20:41;29.58;;;22.13;;
41875;SDS011;27555;50.808;4.402;2023-04-21T03:23:07;32.00;;;21.92;;
41875;SDS011;27555;50.808;4.402;2023-04-21T03:25:32;34.05;;;22.35;;
41875;SDS011;27555;50.808;4.402;2023-04-21T03:27:58;30.67;;;22.42;;
41875;SDS011;27555;50.808;4.402;2023-04-21T03:30:24;32.13;;;22.63;;
41875;SDS011;27555;50.808;4.402;2023-04-21T03:32:50;30.60;;;22.77;;
41875;SDS011;27555;50.808;4.402;2023-04-21T03:35:16;33.00;;;22.98;;
41875;SDS011;27555;50.808;4.402;2023-04-21T03:37:42;30.13;;;22.10;;
41875;SDS011;27555;50.808;4.402;2023-04-21T03:40:08;31.42;;;22.45;;
41875;SDS011;27555;50.808;4.402;2023-04-21T03:42:34;32.92;;;22.27;;
41875;SDS011;27555;50.808;4.402;2023-04-21T03:45:01;41.67;;;22.50;;
41875;SDS011;27555;50.808;4.402;2023-04-21T03:47:31;32.58;;;21.92;;
41875;SDS011;27555;50.808;4.402;2023-04-21T03:49:56;32.65;;;22.42;;
41875;SDS011;27555;50.808;4.402;2023-04-21T03:52:22;35.22;;;23.05;;
41875;SDS011;27555;50.808;4.402;2023-04-21T03:54:48;32.53;;;22.58;;
41875;SDS011;27555;50.808;4.402;2023-04-21T03:57:14;34.08;;;23.67;;
41875;SDS011;27555;50.808;4.402;2023-04-21T03:59:39;34.28;;;21.95;;
41875;SDS011;27555;50.808;4.402;2023-04-21T04:02:05;34.78;;;23.83;;
41875;SDS011;27555;50.808;4.402;2023-04-21T04:04:31;33.67;;;23.92;;
41875;SDS011;27555;50.808;4.402;2023-04-21T04:06:57;32.58;;;22.63;;
41875;SDS011;27555;50.808;4.402;2023-04-21T04:09:22;35.17;;;22.80;;
41875;SDS011;27555;50.808;4.402;2023-04-21T04:11:48;33.88;;;23.00;;
41875;SDS011;27555;50.808;4.402;2023-04-21T04:14:14;35.08;;;24.73;;
41875;SDS011;27555;50.808;4.402;2023-04-21T04:16:40;34.47;;;23.25;;
41875;SDS011;27555;50.808;4.402;2023-04-21T04:19:06;34.08;;;22.92;;
41875;SDS011;27555;50.808;4.402;2023-04-21T04:21:32;37.80;;;24.80;;
41875;SDS011;27555;50.808;4.402;2023-04-21T04:23:58;31.30;;;22.90;;
41875;SDS011;27555;50.808;4.402;2023-04-21T04:26:25;33.92;;;23.23;;
41875;SDS011;27555;50.808;4.402;2023-04-21T04:28:51;34.97;;;22.83;;
41875;SDS011;27555;50.808;4.402;2023-04-21T04:31:17;33.90;;;23.00;;
41875;SDS011;27555;50.808;4.402;2023-04-21T04:33:43;31.65;;;20.23;;
41875;SDS011;27555;50.808;4.402;2023-04-21T04:36:09;31.50;;;21.63;;
41875;SDS011;27555;50.808;4.402;2023-04-21T04:38:36;32.05;;;21.95;;
41875;SDS011;27555;50.808;4.402;2023-04-21T04:41:02;33.67;;;22.02;;
41875;SDS011;27555;50.808;4.402;2023-04-21T04:43:29;34.63;;;23.35;;
41875;SDS011;27555;50.808;4.402;2023-04-21T04:46:00;32.28;;;22.95;;
41875;SDS011;27555;50.808;4.402;2023-04-21T04:48:26;35.47;;;23.40;;
41875;SDS011;27555;50.808;4.402;2023-04-21T04:50:52;34.58;;;23.42;;
41875;SDS011;27555;50.808;4.402;2023-04-21T04:53:18;36.88;;;23.60;;
41875;SDS011;27555;50.808;4.402;2023-04-21T04:55:43;33.67;;;22.38;;
41875;SDS011;27555;50.808;4.402;2023-04-21T04:58:10;32.95;;;22.77;;
41875;SDS011;27555;50.808;4.402;2023-04-21T05:00:35;31.55;;;21.95;;
41875;SDS011;27555;50.808;4.402;2023-04-21T05:03:01;34.45;;;23.30;;
41875;SDS011;27555;50.808;4.402;2023-04-21T05:05:27;37.10;;;24.90;;
41875;SDS011;27555;50.808;4.402;2023-04-21T05:07:53;32.30;;;22.35;;
41875;SDS011;27555;50.808;4.402;2023-04-21T05:10:18;34.67;;;23.17;;
41875;SDS011;27555;50.808;4.402;2023-04-21T05:12:44;31.90;;;22.08;;
41875;SDS011;27555;50.808;4.402;2023-04-21T05:15:10;33.17;;;22.70;;
41875;SDS011;27555;50.808;4.402;2023-04-21T05:17:35;31.30;;;20.38;;
41875;SDS011;27555;50.808;4.402;2023-04-21T05:20:03;30.15;;;21.27;;
41875;SDS011;27555;50.808;4.402;2023-04-21T05:22:29;30.83;;;22.17;;
41875;SDS011;27555;50.808;4.402;2023-04-21T05:24:55;27.83;;;20.05;;
41875;SDS011;27555;50.808;4.402;2023-04-21T05:27:20;28.08;;;20.33;;
41875;SDS011;27555;50.808;4.402;2023-04-21T05:29:46;29.13;;;19.58;;
41875;SDS011;27555;50.808;4.402;2023-04-21T05:32:11;26.83;;;19.65;;
41875;SDS011;27555;50.808;4.402;2023-04-21T05:34:37;28.23;;;19.25;;
41875;SDS011;27555;50.808;4.402;2023-04-21T05:37:03;28.83;;;20.15;;
41875;SDS011;27555;50.808;4.402;2023-04-21T05:39:28;26.35;;;18.27;;
41875;SDS011;27555;50.808;4.402;2023-04-21T05:41:54;24.92;;;17.27;;
41875;SDS011;27555;50.808;4.402;2023-04-21T05:44:20;27.33;;;18.98;;
41875;SDS011;27555;50.808;4.402;2023-04-21T05:46:46;25.33;;;17.80;;
41875;SDS011;27555;50.808;4.402;2023-04-21T05:49:12;26.75;;;18.45;;
41875;SDS011;27555;50.808;4.402;2023-04-21T05:51:37;24.38;;;17.02;;
41875;SDS011;27555;50.808;4.402;2023-04-21T05:54:03;26.05;;;18.73;;
41875;SDS011;27555;50.808;4.402;2023-04-21T05:56:29;23.77;;;17.25;;
41875;SDS011;27555;50.808;4.402;2023-04-21T05:58:54;25.27;;;17.40;;
41875;SDS011;27555;50.808;4.402;2023-04-21T06:01:20;29.35;;;17.38;;
41875;SDS011;27555;50.808;4.402;2023-04-21T06:03:46;25.38;;;17.33;;
41875;SDS011;27555;50.808;4.402;2023-04-21T06:06:14;23.83;;;17.67;;
41875;SDS011;27555;50.808;4.402;2023-04-21T06:08:40;24.58;;;16.95;;
41875;SDS011;27555;50.808;4.402;2023-04-21T06:11:05;26.05;;;17.90;;
41875;SDS011;27555;50.808;4.402;2023-04-21T06:13:31;24.60;;;17.25;;
41875;SDS011;27555;50.808;4.402;2023-04-21T06:15:57;22.45;;;16.75;;
41875;SDS011;27555;50.808;4.402;2023-04-21T06:18:25;23.25;;;16.77;;
41875;SDS011;27555;50.808;4.402;2023-04-21T06:20:51;23.73;;;16.50;;
41875;SDS011;27555;50.808;4.402;2023-04-21T06:23:19;22.92;;;16.77;;
41875;SDS011;27555;50.808;4.402;2023-04-21T06:25:45;25.77;;;16.52;;
41875;SDS011;27555;50.808;4.402;2023-04-21T06:28:11;21.38;;;15.57;;
41875;SDS011;27555;50.808;4.402;2023-04-21T06:30:36;22.75;;;17.10;;
41875;SDS011;27555;50.808;4.402;2023-04-21T06:33:02;22.33;;;15.23;;
41875;SDS011;27555;50.808;4.402;2023-04-21T06:35:28;23.60;;;15.45;;
41875;SDS011;27555;50.808;4.402;2023-04-21T06:37:54;21.00;;;14.68;;
41875;SDS011;27555;50.808;4.402;2023-04-21T06:40:20;21.35;;;14.15;;
41875;SDS011;27555;50.808;4.402;2023-04-21T06:42:46;20.67;;;14.15;;
41875;SDS011;27555;50.808;4.402;2023-04-21T06:45:12;20.13;;;13.70;;
41875;SDS011;27555;50.808;4.402;2023-04-21T06:47:37;20.17;;;14.90;;
41875;SDS011;27555;50.808;4.402;2023-04-21T06:50:03;20.35;;;15.18;;
41875;SDS011;27555;50.808;4.402;2023-04-21T06:52:29;19.00;;;12.90;;
41875;SDS011;27555;50.808;4.402;2023-04-21T06:54:55;20.23;;;13.68;;
41875;SDS011;27555;50.808;4.402;2023-04-21T06:57:21;19.20;;;12.77;;
41875;SDS011;27555;50.808;4.402;2023-04-21T06:59:47;17.20;;;12.15;;
41875;SDS011;27555;50.808;4.402;2023-04-21T07:02:12;20.92;;;12.48;;
41875;SDS011;27555;50.808;4.402;2023-04-21T07:04:38;18.33;;;12.13;;
41875;SDS011;27555;50.808;4.402;2023-04-21T07:07:03;17.63;;;11.73;;
41875;SDS011;27555;50.808;4.402;2023-04-21T07:09:29;16.08;;;11.82;;
41875;SDS011;27555;50.808;4.402;2023-04-21T07:11:57;14.90;;;11.38;;
41875;SDS011;27555;50.808;4.402;2023-04-21T07:14:23;13.27;;;10.35;;
41875;SDS011;27555;50.808;4.402;2023-04-21T07:16:49;14.73;;;11.45;;
41875;SDS011;27555;50.808;4.402;2023-04-21T07:19:15;13.63;;;10.10;;
41875;SDS011;27555;50.808;4.402;2023-04-21T07:21:41;13.13;;;10.45;;
41875;SDS011;27555;50.808;4.402;2023-04-21T07:24:06;12.68;;;9.63;;
41875;SDS011;27555;50.808;4.402;2023-04-21T07:26:32;12.65;;;9.73;;
41875;SDS011;27555;50.808;4.402;2023-04-21T07:28:58;13.40;;;10.60;;
41875;SDS011;27555;50.808;4.402;2023-04-21T07:31:24;12.52;;;9.52;;
41875;SDS011;27555;50.808;4.402;2023-04-21T07:33:49;13.23;;;10.02;;
41875;SDS011;27555;50.808;4.402;2023-04-21T07:36:15;12.07;;;8.90;;
41875;SDS011;27555;50.808;4.402;2023-04-21T07:38:42;12.80;;;9.40;;
41875;SDS011;27555;50.808;4.402;2023-04-21T07:41:11;12.75;;;9.23;;
41875;SDS011;27555;50.808;4.402;2023-04-21T07:43:37;11.60;;;9.27;;
41875;SDS011;27555;50.808;4.402;2023-04-21T07:46:03;13.02;;;9.05;;
41875;SDS011;27555;50.808;4.402;2023-04-21T07:48:29;11.45;;;9.50;;
41875;SDS011;27555;50.808;4.402;2023-04-21T07:50:55;10.75;;;8.70;;
41875;SDS011;27555;50.808;4.402;2023-04-21T07:53:22;11.50;;;9.55;;
41875;SDS011;27555;50.808;4.402;2023-04-21T07:55:48;11.80;;;9.65;;
41875;SDS011;27555;50.808;4.402;2023-04-21T07:58:14;11.63;;;9.63;;
41875;SDS011;27555;50.808;4.402;2023-04-21T08:00:40;9.93;;;8.45;;
41875;SDS011;27555;50.808;4.402;2023-04-21T08:03:06;10.88;;;9.30;;
41875;SDS011;27555;50.808;4.402;2023-04-21T08:05:32;11.02;;;8.32;;
41875;SDS011;27555;50.808;4.402;2023-04-21T08:07:57;10.32;;;8.45;;
41875;SDS011;27555;50.808;4.402;2023-04-21T08:10:23;9.38;;;7.80;;
41875;SDS011;27555;50.808;4.402;2023-04-21T08:12:49;9.20;;;7.68;;
41875;SDS011;27555;50.808;4.402;2023-04-21T08:15:14;11.05;;;7.43;;
41875;SDS011;27555;50.808;4.402;2023-04-21T08:17:40;8.80;;;7.63;;
41875;SDS011;27555;50.808;4.402;2023-04-21T08:20:06;7.70;;;6.90;;
41875;SDS011;27555;50.808;4.402;2023-04-21T08:22:32;10.52;;;7.80;;
41875;SDS011;27555;50.808;4.402;2023-04-21T08:24:59;8.77;;;7.25;;
41875;SDS011;27555;50.808;4.402;2023-04-21T08:27:25;7.60;;;6.50;;
41875;SDS011;27555;50.808;4.402;2023-04-21T08:29:50;10.38;;;7.53;;
41875;SDS011;27555;50.808;4.402;2023-04-21T08:32:16;7.53;;;6.78;;
41875;SDS011;27555;50.808;4.402;2023-04-21T08:34:47;8.57;;;7.32;;
41875;SDS011;27555;50.808;4.402;2023-04-21T08:37:14;8.23;;;7.35;;
41875;SDS011;27555;50.808;4.402;2023-04-21T08:39:39;8.45;;;6.35;;
41875;SDS011;27555;50.808;4.402;2023-04-21T08:42:06;9.35;;;6.95;;
41875;SDS011;27555;50.808;4.402;2023-04-21T08:44:32;10.75;;;7.10;;
41875;SDS011;27555;50.808;4.402;2023-04-21T08:46:58;12.30;;;7.20;;
41875;SDS011;27555;50.808;4.402;2023-04-21T08:49:24;10.38;;;7.00;;
41875;SDS011;27555;50.808;4.402;2023-04-21T08:51:55;9.60;;;7.85;;
41875;SDS011;27555;50.808;4.402;2023-04-21T08:54:21;9.10;;;7.20;;
41875;SDS011;27555;50.808;4.402;2023-04-21T08:56:47;8.10;;;6.60;;
41875;SDS011;27555;50.808;4.402;2023-04-21T08:59:13;7.30;;;6.53;;
41875;SDS011;27555;50.808;4.402;2023-04-21T09:04:34;7.35;;;6.53;;
41875;SDS011;27555;50.808;4.402;2023-04-21T09:07:02;12.80;;;7.82;;
41875;SDS011;27555;50.808;4.402;2023-04-21T09:09:28;7.20;;;6.22;;
41875;SDS011;27555;50.808;4.402;2023-04-21T09:11:56;8.43;;;6.85;;
41875;SDS011;27555;50.808;4.402;2023-04-21T09:14:32;7.47;;;6.68;;
41875;SDS011;27555;50.808;4.402;2023-04-21T09:17:02;7.28;;;6.32;;
41875;SDS011;27555;50.808;4.402;2023-04-21T09:19:29;10.27;;;7.38;;
41875;SDS011;27555;50.808;4.402;2023-04-21T09:21:57;7.88;;;6.60;;
41875;SDS011;27555;50.808;4.402;2023-04-21T09:24:25;7.30;;;6.50;;
41875;SDS011;27555;50.808;4.402;2023-04-21T09:26:51;7.80;;;6.32;;
41875;SDS011;27555;50.808;4.402;2023-04-21T09:29:21;8.90;;;7.40;;
41875;SDS011;27555;50.808;4.402;2023-04-21T09:31:48;7.22;;;6.13;;
41875;SDS011;27555;50.808;4.402;2023-04-21T09:34:18;9.73;;;6.53;;
41875;SDS011;27555;50.808;4.402;2023-04-21T09:36:46;8.05;;;6.80;;
41875;SDS011;27555;50.808;4.402;2023-04-21T09:39:12;6.97;;;6.13;;
41875;SDS011;27555;50.808;4.402;2023-04-21T09:41:38;6.30;;;5.70;;
41875;SDS011;27555;50.808;4.402;2023-04-21T09:44:04;7.20;;;6.32;;
41875;SDS011;27555;50.808;4.402;2023-04-21T09:46:34;7.35;;;6.55;;
41875;SDS011;27555;50.808;4.402;2023-04-21T09:49:00;9.90;;;6.90;;
41875;SDS011;27555;50.808;4.402;2023-04-21T09:51:27;7.57;;;6.20;;
41875;SDS011;27555;50.808;4.402;2023-04-21T09:53:57;7.22;;;6.07;;
41875;SDS011;27555;50.808;4.402;2023-04-21T09:56:27;8.40;;;5.85;;
41875;SDS011;27555;50.808;4.402;2023-04-21T10:01:25;6.68;;;5.35;;
41875;SDS011;27555;50.808;4.402;2023-04-21T10:03:53;6.93;;;5.68;;
41875;SDS011;27555;50.808;4.402;2023-04-21T10:06:19;6.38;;;5.10;;
41875;SDS011;27555;50.808;4.402;2023-04-21T10:08:46;7.32;;;5.05;;
41875;SDS011;27555;50.808;4.402;2023-04-21T10:11:14;6.00;;;4.85;;
41875;SDS011;27555;50.808;4.402;2023-04-21T10:13:40;7.15;;;5.70;;
41875;SDS011;27555;50.808;4.402;2023-04-21T10:16:09;5.40;;;4.90;;
41875;SDS011;27555;50.808;4.402;2023-04-21T10:18:35;8.03;;;5.97;;
41875;SDS011;27555;50.808;4.402;2023-04-21T10:21:09;7.25;;;5.95;;
41875;SDS011;27555;50.808;4.402;2023-04-21T10:23:46;7.00;;;5.70;;
41875;SDS011;27555;50.808;4.402;2023-04-21T10:26:16;7.20;;;5.10;;
41875;SDS011;27555;50.808;4.402;2023-04-21T10:29:05;7.10;;;5.45;;
41875;SDS011;27555;50.808;4.402;2023-04-21T10:31:34;5.88;;;5.22;;
41875;SDS011;27555;50.808;4.402;2023-04-21T10:36:33;7.07;;;5.85;;
41875;SDS011;27555;50.808;4.402;2023-04-21T10:39:07;9.70;;;6.68;;
41875;SDS011;27555;50.808;4.402;2023-04-21T10:41:33;7.78;;;5.97;;
41875;SDS011;27555;50.808;4.402;2023-04-21T10:46:38;5.70;;;4.80;;
41875;SDS011;27555;50.808;4.402;2023-04-21T10:57:17;5.50;;;4.60;;
41875;SDS011;27555;50.808;4.402;2023-04-21T10:59:44;7.30;;;4.95;;
41875;SDS011;27555;50.808;4.402;2023-04-21T11:02:11;5.32;;;4.82;;
41875;SDS011;27555;50.808;4.402;2023-04-21T11:04:41;5.50;;;4.57;;
41875;SDS011;27555;50.808;4.402;2023-04-21T11:07:13;6.78;;;4.80;;
41875;SDS011;27555;50.808;4.402;2023-04-21T11:09:41;5.80;;;4.72;;
41875;SDS011;27555;50.808;4.402;2023-04-21T11:14:35;6.40;;;5.25;;
41875;SDS011;27555;50.808;4.402;2023-04-21T11:17:02;7.25;;;4.60;;
41875;SDS011;27555;50.808;4.402;2023-04-21T11:19:31;6.82;;;4.63;;
41875;SDS011;27555;50.808;4.402;2023-04-21T11:21:57;10.20;;;4.97;;
41875;SDS011;27555;50.808;4.402;2023-04-21T11:24:23;7.00;;;4.65;;
41875;SDS011;27555;50.808;4.402;2023-04-21T11:26:48;6.50;;;5.25;;
41875;SDS011;27555;50.808;4.402;2023-04-21T11:29:15;5.68;;;4.07;;
41875;SDS011;27555;50.808;4.402;2023-04-21T11:31:42;5.78;;;3.92;;
41875;SDS011;27555;50.808;4.402;2023-04-21T11:34:10;4.68;;;3.80;;
41875;SDS011;27555;50.808;4.402;2023-04-21T11:36:38;6.70;;;4.18;;
41875;SDS011;27555;50.808;4.402;2023-04-21T11:39:05;4.75;;;4.07;;
41875;SDS011;27555;50.808;4.402;2023-04-21T11:41:33;8.55;;;5.40;;
41875;SDS011;27555;50.808;4.402;2023-04-21T11:44:00;8.50;;;6.32;;
41875;SDS011;27555;50.808;4.402;2023-04-21T11:46:26;7.13;;;5.70;;
41875;SDS011;27555;50.808;4.402;2023-04-21T11:53:59;4.88;;;3.63;;
41875;SDS011;27555;50.808;4.402;2023-04-21T11:56:25;6.13;;;5.15;;
41875;SDS011;27555;50.808;4.402;2023-04-21T11:58:51;5.88;;;4.70;;
41875;SDS011;27555;50.808;4.402;2023-04-21T12:01:17;5.28;;;4.28;;
41875;SDS011;27555;50.808;4.402;2023-04-21T12:03:51;9.93;;;4.32;;
41875;SDS011;27555;50.808;4.402;2023-04-21T12:06:24;5.55;;;4.22;;
41875;SDS011;27555;50.808;4.402;2023-04-21T12:09:34;9.07;;;5.00;;
41875;SDS011;27555;50.808;4.402;2023-04-21T12:11:42;6.85;;;3.65;;
41875;SDS011;27555;50.808;4.402;2023-04-21T12:14:11;8.20;;;4.57;;
41875;SDS011;27555;50.808;4.402;2023-04-21T12:16:38;5.45;;;4.75;;
41875;SDS011;27555;50.808;4.402;2023-04-21T12:19:04;5.00;;;4.40;;
41875;SDS011;27555;50.808;4.402;2023-04-21T12:21:29;7.63;;;4.68;;
41875;SDS011;27555;50.808;4.402;2023-04-21T12:23:55;5.82;;;3.90;;
41875;SDS011;27555;50.808;4.402;2023-04-21T12:26:21;6.47;;;4.10;;
41875;SDS011;27555;50.808;4.402;2023-04-21T12:28:50;6.85;;;4.70;;
41875;SDS011;27555;50.808;4.402;2023-04-21T12:31:17;7.82;;;4.28;;
41875;SDS011;27555;50.808;4.402;2023-04-21T12:33:43;5.78;;;3.78;;
41875;SDS011;27555;50.808;4.402;2023-04-21T12:36:08;4.65;;;3.35;;
41875;SDS011;27555;50.808;4.402;2023-04-21T12:38:34;4.47;;;2.53;;
41875;SDS011;27555;50.808;4.402;2023-04-21T12:40:59;4.53;;;3.47;;
41875;SDS011;27555;50.808;4.402;2023-04-21T12:43:25;4.72;;;3.08;;
41875;SDS011;27555;50.808;4.402;2023-04-21T12:45:51;3.15;;;2.17;;
41875;SDS011;27555;50.808;4.402;2023-04-21T12:48:17;3.72;;;3.05;;
41875;SDS011;27555;50.808;4.402;2023-04-21T12:50:44;6.28;;;4.20;;
41875;SDS011;27555;50.808;4.402;2023-04-21T12:53:11;4.40;;;3.28;;
41875;SDS011;27555;50.808;4.402;2023-04-21T12:55:37;4.25;;;3.42;;
41875;SDS011;27555;50.808;4.402;2023-04-21T12:58:02;6.05;;;3.95;;
41875;SDS011;27555;50.808;4.402;2023-04-21T13:00:28;7.68;;;4.03;;
41875;SDS011;27555;50.808;4.402;2023-04-21T13:02:54;7.30;;;3.80;;
41875;SDS011;27555;50.808;4.402;2023-04-21T13:05:19;4.50;;;3.63;;
41875;SDS011;27555;50.808;4.402;2023-04-21T13:07:45;9.75;;;3.67;;
41875;SDS011;27555;50.808;4.402;2023-04-21T13:10:10;6.18;;;3.92;;
41875;SDS011;27555;50.808;4.402;2023-04-21T13:12:36;10.27;;;3.70;;
41875;SDS011;27555;50.808;4.402;2023-04-21T13:15:02;6.60;;;4.70;;
41875;SDS011;27555;50.808;4.402;2023-04-21T13:17:28;6.55;;;4.78;;
41875;SDS011;27555;50.808;4.402;2023-04-21T13:19:54;6.75;;;5.05;;
41875;SDS011;27555;50.808;4.402;2023-04-21T13:22:20;7.28;;;5.30;;
41875;SDS011;27555;50.808;4.402;2023-04-21T13:24:46;6.70;;;3.08;;
41875;SDS011;27555;50.808;4.402;2023-04-21T13:27:12;7.00;;;3.50;;
41875;SDS011;27555;50.808;4.402;2023-04-21T13:29:37;7.00;;;3.65;;
41875;SDS011;27555;50.808;4.402;2023-04-21T13:32:04;6.43;;;4.10;;
41875;SDS011;27555;50.808;4.402;2023-04-21T13:34:31;6.28;;;4.60;;
41875;SDS011;27555;50.808;4.402;2023-04-21T13:36:58;6.85;;;4.28;;
41875;SDS011;27555;50.808;4.402;2023-04-21T13:39:24;5.10;;;4.25;;
41875;SDS011;27555;50.808;4.402;2023-04-21T13:41:51;8.20;;;5.05;;
41875;SDS011;27555;50.808;4.402;2023-04-21T13:44:17;6.82;;;4.72;;
41875;SDS011;27555;50.808;4.402;2023-04-21T13:46:43;12.00;;;6.00;;
41875;SDS011;27555;50.808;4.402;2023-04-21T13:49:09;6.95;;;5.13;;
41875;SDS011;27555;50.808;4.402;2023-04-21T13:51:35;8.20;;;4.95;;
41875;SDS011;27555;50.808;4.402;2023-04-21T13:54:00;7.28;;;4.70;;
41875;SDS011;27555;50.808;4.402;2023-04-21T13:56:26;7.68;;;3.88;;
41875;SDS011;27555;50.808;4.402;2023-04-21T13:58:52;6.47;;;4.03;;
41875;SDS011;27555;50.808;4.402;2023-04-21T14:01:19;5.00;;;4.10;;
41875;SDS011;27555;50.808;4.402;2023-04-21T14:03:44;7.97;;;3.90;;
41875;SDS011;27555;50.808;4.402;2023-04-21T14:06:10;7.00;;;4.32;;
41875;SDS011;27555;50.808;4.402;2023-04-21T14:08:36;5.22;;;3.63;;
41875;SDS011;27555;50.808;4.402;2023-04-21T14:11:02;5.97;;;3.70;;
41875;SDS011;27555;50.808;4.402;2023-04-21T14:13:28;4.40;;;3.88;;
41875;SDS011;27555;50.808;4.402;2023-04-21T14:15:55;5.88;;;3.95;;
41875;SDS011;27555;50.808;4.402;2023-04-21T14:18:21;5.25;;;3.72;;
41875;SDS011;27555;50.808;4.402;2023-04-21T14:20:47;7.63;;;4.20;;
41875;SDS011;27555;50.808;4.402;2023-04-21T14:23:13;4.40;;;3.72;;
41875;SDS011;27555;50.808;4.402;2023-04-21T14:25:39;8.75;;;3.92;;
41875;SDS011;27555;50.808;4.402;2023-04-21T14:28:04;6.70;;;3.95;;
41875;SDS011;27555;50.808;4.402;2023-04-21T14:30:33;7.05;;;3.72;;
41875;SDS011;27555;50.808;4.402;2023-04-21T14:33:00;7.07;;;4.10;;
41875;SDS011;27555;50.808;4.402;2023-04-21T14:35:26;5.20;;;3.63;;
41875;SDS011;27555;50.808;4.402;2023-04-21T14:37:52;6.25;;;3.53;;
41875;SDS011;27555;50.808;4.402;2023-04-21T14:40:17;12.32;;;4.78;;
41875;SDS011;27555;50.808;4.402;2023-04-21T14:42:43;6.32;;;4.00;;
41875;SDS011;27555;50.808;4.402;2023-04-21T14:45:08;8.07;;;3.65;;
41875;SDS011;27555;50.808;4.402;2023-04-21T14:47:35;4.20;;;3.78;;
41875;SDS011;27555;50.808;4.402;2023-04-21T14:50:01;5.38;;;3.55;;
41875;SDS011;27555;50.808;4.402;2023-04-21T14:52:28;5.07;;;3.70;;
41875;SDS011;27555;50.808;4.402;2023-04-21T14:54:54;5.85;;;3.72;;